Data for 03/27/2008

Time Sea-Level Adjusted Pressure Absolute Pressure Temperature Relative Humidity Dew Point   
(mb) (inHg) (mb) (inHg) (C) (F) (%) (C) (F)
00:05 1011 29.85 840 24.81 -4 24.7 164 2.8 37
00:10 1011 29.85 840 24.81 -4.3 24.2 165 2.5 36.5
00:15 1011 29.85 840 24.81 -4.3 24.2 165 2.5 36.5
00:20 1011 29.85 840 24.81 -4.1 24.5 164 2.7 36.8
00:25 1011 29.85 840 24.81 -3.9 25 165 2.9 37.3
00:30 1011 29.85 840 24.81 -3.8 25.2 165 3.1 37.5
00:35 1011 29.85 840 24.81 -3.8 25.2 164 3 37.5
00:40 1011 29.85 840 24.81 -3.8 25.2 164 3 37.5
00:45 1011 29.85 840 24.81 -3.8 25.2 165 3 37.5
00:50 1011 29.85 840 24.81 -3.8 25.2 164 3 37.5
00:55 1011 29.85 840 24.81 -3.8 25.1 165 3 37.5
01:00 1011 29.85 840 24.81 -3.9 25 165 3 37.3
01:05 1011 29.85 840 24.81 -3.9 24.9 165 2.9 37.2
01:10 1011 29.85 840 24.81 -4 24.8 165 2.8 37.1
01:15 1011 29.85 840 24.81 -4.1 24.5 165 2.7 36.8
01:20 1011 29.85 840 24.81 -4.4 24.1 165 2.4 36.4
01:25 1011 29.85 840 24.81 -4.6 23.7 165 2.2 35.9
01:30 1011 29.85 840 24.81 -4.7 23.5 165 2.1 35.8
01:35 1011 29.85 841 24.83 -4.5 24 165 2.3 36.2
01:40 1011 29.85 841 24.83 -4.2 24.4 165 2.6 36.7
01:45 1011 29.85 841 24.83 -4.2 24.5 165 2.6 36.7
01:50 1011 29.85 841 24.83 -4.4 24.1 165 2.4 36.4
01:55 1011 29.85 840 24.81 -4.5 23.8 165 2.3 36.1
02:00 1011 29.85 840 24.81 -4.5 23.8 165 2.3 36.1
02:05 1011 29.85 840 24.81 -4.5 23.8 141 0.2 32.3
02:10 1011 29.85 840 24.81 -4.6 23.6 87 -6.5 20.2
02:15 1011 29.85 840 24.81 -4.8 23.3 88 -6.6 20.1
02:20 1011 29.85 840 24.81 -4.7 23.5 88 -6.4 20.4
02:25 1011 29.85 840 24.81 -4.7 23.5 88 -6.4 20.5
02:30 1011 29.85 840 24.81 -4.8 23.3 88 -6.5 20.2
02:35 1011 29.85 840 24.81 -4.9 23.3 87 -6.7 20
02:40 1010 29.83 840 24.81 -4.9 23.1 87 -6.8 19.7
02:45 1010 29.83 840 24.81 -5.1 22.8 87 -6.9 19.5
02:50 1010 29.83 840 24.81 -5.3 22.5 88 -7 19.4
02:55 1010 29.83 839 24.78 -5.3 22.4 88 -7 19.5
03:00 1010 29.83 839 24.78 -5.3 22.4 88 -7 19.5
03:05 1010 29.83 839 24.78 -5.3 22.4 89 -6.9 19.6
03:10 1010 29.83 839 24.78 -5 22.9 89 -6.7 20
03:15 1010 29.83 839 24.78 -4.7 23.5 88 -6.4 20.6
03:20 1010 29.83 839 24.78 -4.5 23.9 88 -6.3 20.7
03:25 1010 29.83 839 24.78 -4.5 24 87 -6.2 20.8
03:30 1010 29.83 839 24.78 -4.4 24.1 87 -6.2 20.8
03:35 1010 29.83 839 24.78 -4.3 24.3 87 -6.2 20.9
03:40 1010 29.83 839 24.78 -4.3 24.4 87 -6.2 20.9
03:45 1010 29.83 839 24.78 -4.2 24.4 86 -6.2 20.9
03:50 1010 29.83 839 24.78 -4.3 24.3 85 -6.3 20.6
03:55 1009 29.8 839 24.78 -4.3 24.2 86 -6.3 20.6
04:00 1009 29.8 839 24.78 -4.1 24.7 85 -6.2 20.9
04:05 1009 29.8 839 24.78 -4 24.7 85 -6.2 20.8
04:10 1009 29.8 839 24.78 -4 24.7 84 -6.3 20.6
04:15 1009 29.8 839 24.78 -4 24.7 84 -6.4 20.5
04:20 1009 29.8 839 24.78 -4 24.8 84 -6.3 20.6
04:25 1010 29.83 839 24.78 -3.9 24.9 83 -6.4 20.5
04:30 1010 29.83 839 24.78 -3.9 25 83 -6.3 20.6
04:35 1009 29.8 839 24.78 -3.9 24.9 83 -6.4 20.6
04:40 1009 29.8 839 24.78 -4 24.7 83 -6.5 20.3
04:45 1009 29.8 839 24.78 -4 24.8 83 -6.5 20.4
04:50 1009 29.8 839 24.78 -3.9 25 83 -6.5 20.4
04:55 1009 29.8 839 24.78 -3.9 24.9 83 -6.5 20.3
05:00 1009 29.8 839 24.78 -3.9 24.9 82 -6.5 20.3
05:05 1009 29.8 839 24.78 -3.9 25 82 -6.6 20.1
05:10 1009 29.8 839 24.78 -3.9 25 81 -6.6 20.1
05:15 1009 29.8 838 24.75 -4 24.9 82 -6.7 20
05:20 1009 29.8 839 24.78 -4 24.8 82 -6.7 20
05:25 1009 29.8 839 24.78 -4.1 24.7 81 -6.8 19.8
05:30 1009 29.8 839 24.78 -4 24.8 82 -6.6 20.1
05:35 1009 29.8 839 24.78 -4 24.9 83 -6.4 20.4
05:40 1009 29.8 839 24.78 -4.1 24.6 84 -6.3 20.6
05:45 1009 29.8 839 24.78 -4.3 24.2 86 -6.3 20.6
05:50 1009 29.8 839 24.78 -4.4 24 87 -6.4 20.6
05:55 1009 29.8 839 24.78 -4.4 24.1 87 -6.2 20.9
06:00 1010 29.83 839 24.78 -4.4 24.1 88 -6.1 20.9
06:05 1010 29.83 839 24.78 -4.4 24.1 88 -6.1 21
06:10 1010 29.83 839 24.78 -4.4 24.1 88 -6 21.1
06:15 1010 29.83 839 24.78 -4.3 24.2 89 -5.9 21.3
06:20 1010 29.83 839 24.78 -4.3 24.2 88 -6 21.2
06:25 1010 29.83 839 24.78 -4.5 24 88 -6.1 21
06:30 1010 29.83 839 24.78 -4.3 24.3 88 -6 21.3
06:35 1010 29.83 840 24.81 -3.9 24.9 88 -5.7 21.7
06:40 1011 29.85 840 24.81 -3.9 25 89 -5.5 22
06:45 1011 29.85 840 24.81 -4.2 24.4 90 -5.6 21.9
06:50 1011 29.85 840 24.81 -4.3 24.3 91 -5.6 21.9
06:55 1011 29.85 840 24.81 -4.6 23.7 92 -5.7 21.7
07:00 1011 29.85 840 24.81 -4.8 23.3 93 -5.8 21.6
07:05 1011 29.85 840 24.81 -4.7 23.6 94 -5.5 22
07:10 1011 29.85 840 24.81 -4.6 23.8 94 -5.4 22.2
07:15 1011 29.85 840 24.81 -4.6 23.8 94 -5.3 22.4
07:20 1011 29.85 840 24.81 -4.7 23.6 94 -5.5 22.2
07:25 1011 29.85 840 24.81 -4.8 23.4 95 -5.5 22.1
07:30 1011 29.85 840 24.81 -4.8 23.3 96 -5.4 22.2
07:35 1011 29.85 840 24.81 -4.7 23.6 96 -5.2 22.6
07:40 1011 29.85 840 24.81 -4.7 23.6 96 -5.2 22.6
07:45 1011 29.85 841 24.83 -4.6 23.7 96 -5.2 22.7
07:50 1011 29.85 841 24.83 -4.5 23.9 96 -5.1 22.8
07:55 1011 29.85 841 24.83 -4.5 23.9 95 -5.2 22.7
08:00 1011 29.85 841 24.83 -4.4 24.1 95 -5.1 22.8
08:05 1011 29.85 841 24.83 -4.3 24.2 94 -5.1 22.8
08:10 1011 29.85 841 24.83 -4.3 24.2 94 -5.1 22.8
08:15 1011 29.85 841 24.83 -4.2 24.5 94 -5 23
08:20 1012 29.88 841 24.83 -4 24.8 94 -4.9 23.3
08:25 1012 29.88 841 24.83 -3.7 25.3 93 -4.7 23.5
08:30 1012 29.88 841 24.83 -3.5 25.6 92 -4.6 23.7
08:35 1012 29.88 841 24.83 -3.3 26.1 92 -4.4 24
08:40 1012 29.88 841 24.83 -3.1 26.5 91 -4.3 24.3
08:45 1012 29.88 841 24.83 -2.9 26.7 90 -4.4 24.2
08:50 1012 29.88 841 24.83 -2.9 26.9 89 -4.4 24.1
08:55 1012 29.88 841 24.83 -2.8 26.9 88 -4.5 24
09:00 1012 29.88 841 24.83 -2.7 27.1 88 -4.5 23.9
09:05 1012 29.88 841 24.83 -2.5 27.4 87 -4.5 23.9
09:10 1012 29.88 841 24.83 -2.3 27.9 85 -4.5 24
09:15 1012 29.88 841 24.83 -2.1 28.2 83 -4.6 23.8
09:20 1012 29.88 841 24.83 -2 28.5 82 -4.6 23.8
09:25 1012 29.88 842 24.86 -1.9 28.5 80 -4.9 23.1
09:30 1012 29.88 842 24.86 -2 28.5 80 -5 23
09:35 1012 29.88 842 24.86 -1.9 28.6 78 -5.2 22.6
09:40 1013 29.91 842 24.86 -1.8 28.8 77 -5.4 22.4
09:45 1013 29.91 842 24.86 -1.7 29 75 -5.5 22.2
09:50 1013 29.91 842 24.86 -1.7 29 73 -6 21.2
09:55 1013 29.91 842 24.86 -1.6 29.1 71 -6.3 20.7
10:00 1013 29.91 842 24.86 -1.6 29.2 69 -6.5 20.4
10:05 1013 29.91 842 24.86 -1.7 29 70 -6.4 20.4
10:10 1013 29.91 842 24.86 -1.6 29.2 70 -6.4 20.5
10:15 1013 29.91 842 24.86 -1.4 29.5 70 -6.2 20.8
10:20 1013 29.91 842 24.86 -1.3 29.7 69 -6.3 20.7
10:25 1013 29.91 842 24.86 -1 30.2 68 -6.3 20.7
10:30 1013 29.91 842 24.86 -0.9 30.3 66 -6.5 20.3
10:35 1013 29.91 842 24.86 -0.9 30.4 64 -6.9 19.7
10:40 1013 29.91 843 24.89 -0.9 30.5 60 -7.7 18.1
10:45 1013 29.91 843 24.89 -0.8 30.6 57 -8.3 17.1
10:50 1013 29.91 843 24.89 -0.8 30.6 56 -8.6 16.5
10:55 1014 29.94 843 24.89 -0.7 30.8 54 -8.8 16.1
11:00 1014 29.94 843 24.89 -0.8 30.5 52 -9.4 15.1
11:05 1014 29.94 843 24.89 -0.8 30.5 51 -9.7 14.5
11:10 1014 29.94 843 24.89 -0.7 30.7 50 -9.9 14.2
11:15 1014 29.94 843 24.89 -0.5 31 51 -9.5 14.9
11:20 1014 29.94 843 24.89 -0.2 31.6 50 -9.5 14.9
11:25 1014 29.94 843 24.89 0 32.1 47 -10.1 13.8
11:30 1014 29.94 843 24.89 -0.1 31.9 45 -10.7 12.7
11:35 1014 29.94 843 24.89 0 32 43 -11 12.2
11:40 1014 29.94 843 24.89 0.2 32.4 44 -10.6 12.9
11:45 1014 29.94 843 24.89 0.5 32.9 41 -11.4 11.5
11:50 1014 29.94 843 24.89 0.1 32.2 41 -11.8 10.8
11:55 1014 29.94 843 24.89 -0.2 31.6 40 -12.3 9.8
12:00 1014 29.94 844 24.92 -0.1 31.8 39 -12.5 9.5
12:05 1014 29.94 844 24.92 0 32.1 38 -12.7 9.1
12:10 1015 29.97 844 24.92 0.1 32.1 38 -12.5 9.5
12:15 1015 29.97 844 24.92 0.3 32.5 39 -12 10.3
12:20 1015 29.97 844 24.92 0.5 32.9 38 -12.3 9.9
12:25 1015 29.97 844 24.92 0.3 32.6 38 -12.4 9.7
12:30 1015 29.97 844 24.92 0.6 33.1 40 -11.6 11.1
12:35 1015 29.97 844 24.92 0.8 33.5 37 -12.4 9.7
12:40 1015 29.97 844 24.92 1.1 33.9 38 -11.8 10.8
12:45 1015 29.97 844 24.92 1.6 34.9 36 -12.1 10.3
12:50 1015 29.97 844 24.92 1.2 34.1 37 -12.1 10.1
12:55 1015 29.97 844 24.92 0.7 33.2 38 -12 10.5
13:00 1015 29.97 844 24.92 0.8 33.5 37 -12.4 9.7
13:05 1015 29.97 844 24.92 0.7 33.2 36 -12.6 9.3
13:10 1015 29.97 844 24.92 0.5 32.9 36 -12.9 8.7
13:15 1015 29.97 844 24.92 0.6 33.1 39 -12 10.4
13:20 1015 29.97 844 24.92 0.4 32.7 39 -12 10.5
13:25 1015 29.97 844 24.92 0.3 32.5 39 -12.3 9.9
13:30 1015 29.97 844 24.92 0.2 32.3 38 -12.7 9.2
13:35 1015 29.97 844 24.92 0.6 33.1 35 -13.2 8.3
13:40 1015 29.97 844 24.92 1.4 34.6 33 -13.3 8.1
13:45 1015 29.97 844 24.92 1.9 35.3 33 -12.9 8.7
13:50 1015 29.97 844 24.92 1.3 34.4 34 -13.1 8.5
13:55 1015 29.97 844 24.92 0.7 33.3 36 -12.9 8.8
14:00 1015 29.97 844 24.92 0.6 33.1 37 -12.6 9.4
14:05 1015 29.97 844 24.92 0.9 33.7 33 -13.7 7.4
14:10 1015 29.97 844 24.92 0.5 32.8 34 -13.6 7.5
14:15 1015 29.97 844 24.92 0.3 32.6 35 -13.6 7.5
14:20 1015 29.97 844 24.92 0.4 32.7 37 -12.6 9.4
14:25 1015 29.97 844 24.92 0.6 33.1 39 -12 10.5
14:30 1015 29.97 844 24.92 0.1 32.2 42 -11.4 11.5
14:35 1015 29.97 844 24.92 0 32 42 -11.5 11.3
14:40 1015 29.97 844 24.92 -0.2 31.7 44 -11.1 12.1
14:45 1015 29.97 844 24.92 -0.2 31.6 47 -10.1 13.8
14:50 1015 29.97 844 24.92 -0.4 31.4 48 -10.2 13.7
14:55 1015 29.97 844 24.92 -0.8 30.5 47 -10.7 12.8
15:00 1015 29.97 844 24.92 -0.8 30.6 47 -10.8 12.5
15:05 1015 29.97 844 24.92 -0.3 31.5 44 -11 12.2
15:10 1015 29.97 844 24.92 0.2 32.4 43 -11 12.2
15:15 1015 29.97 844 24.92 1.3 34.3 38 -11.6 11.1
15:20 1015 29.97 844 24.92 1.8 35.2 35 -12.2 10.1
15:25 1015 29.97 844 24.92 1.4 34.4 33 -13.1 8.4
15:30 1015 29.97 844 24.92 0.6 33.1 36 -12.9 8.8
15:35 1015 29.97 844 24.92 0.8 33.4 40 -11.5 11.3
15:40 1015 29.97 844 24.92 0.2 32.3 53 -8.3 17.1
15:45 1015 29.97 844 24.92 -1.1 30 61 -7.7 18.2
15:50 1015 29.97 845 24.95 -1.7 28.9 65 -7.5 18.5
15:55 1015 29.97 845 24.95 -1.9 28.6 67 -7.3 18.9
16:00 1016 30 845 24.95 -1.9 28.6 69 -6.7 19.9
16:05 1015 29.97 845 24.95 -1.7 28.9 68 -6.8 19.7
16:10 1015 29.97 845 24.95 -1.9 28.5 69 -6.8 19.8
16:15 1015 29.97 845 24.95 -1.9 28.6 68 -7 19.4
16:20 1016 30 845 24.95 -1.6 29.2 67 -6.8 19.7
16:25 1016 30 845 24.95 -0.8 30.5 65 -6.6 20.1
16:30 1016 30 845 24.95 -0.4 31.2 49 -9.8 14.4
16:35 1015 29.97 845 24.95 -0.3 31.5 43 -11.4 11.6
16:40 1015 29.97 845 24.95 -0.2 31.6 41 -11.8 10.7
16:45 1016 30 845 24.95 0.1 32.2 39 -12.2 10
16:50 1016 30 845 24.95 0.5 32.9 43 -10.6 12.9
16:55 1016 30 845 24.95 -0.1 31.9 53 -8.6 16.4
17:00 1016 30 845 24.95 -0.8 30.5 59 -7.8 17.9
17:05 1016 30 845 24.95 -1.6 29.2 64 -7.6 18.4
17:10 1016 30 845 24.95 -1.3 29.7 64 -7.1 19.2
17:15 1016 30 845 24.95 -1.2 29.9 66 -6.7 20
17:20 1016 30 845 24.95 -1.7 29 68 -6.8 19.8
17:25 1016 30 845 24.95 -1.3 29.6 68 -6.6 20.2
17:30 1016 30 845 24.95 -1.2 29.8 69 -6.3 20.7
17:35 1016 30 845 24.95 -0.8 30.6 67 -6.2 20.9
17:40 1016 30 845 24.95 -0.5 31.1 65 -6.3 20.7
17:45 1016 30 845 24.95 -0.4 31.3 61 -6.9 19.5
17:50 1016 30 845 24.95 -0.4 31.3 57 -7.9 17.7
17:55 1016 30 845 24.95 -0.3 31.5 54 -8.4 16.8
18:00 1016 30 845 24.95 -0.3 31.4 53 -8.8 16.2
18:05 1016 30 845 24.95 -0.5 31.2 51 -9.4 15
18:10 1016 30 846 24.98 -0.7 30.7 57 -8.3 17.1
18:15 1016 30 846 24.98 -1.6 29.1 59 -8.6 16.4
18:20 1016 30 846 24.98 -1.3 29.6 57 -8.8 16.2
18:25 1016 30 846 24.98 -0.9 30.3 55 -8.8 16.1
18:30 1016 30 846 24.98 -0.9 30.5 55 -8.8 16.2
18:35 1017 30.03 846 24.98 -0.9 30.4 56 -8.6 16.4
18:40 1017 30.03 846 24.98 -0.9 30.4 56 -8.5 16.7
18:45 1017 30.03 846 24.98 -0.9 30.3 54 -9.1 15.7
18:50 1017 30.03 846 24.98 -1 30.2 51 -9.9 14.2
18:55 1017 30.03 846 24.98 -1 30.2 49 -10.6 13
19:00 1017 30.03 846 24.98 -1.1 30 48 -10.9 12.4
19:05 1017 30.03 846 24.98 -1.2 29.8 48 -11 12.2
19:10 1017 30.03 846 24.98 -1.2 29.9 46 -11.5 11.3
19:15 1017 30.03 846 24.98 -1.2 29.9 45 -11.6 11.1
19:20 1017 30.03 846 24.98 -1.2 29.9 44 -11.9 10.5
19:25 1017 30.03 846 24.98 -1.2 29.8 44 -11.9 10.6
19:30 1017 30.03 846 24.98 -1.4 29.5 45 -11.9 10.7
19:35 1017 30.03 846 24.98 -1.5 29.3 46 -11.8 10.8
19:40 1017 30.03 846 24.98 -1.6 29.1 47 -11.6 11.1
19:45 1017 30.03 846 24.98 -1.6 29.1 47 -11.5 11.2
19:50 1017 30.03 846 24.98 -1.7 29 48 -11.3 11.6
19:55 1017 30.03 846 24.98 -1.7 28.9 48 -11.3 11.7
20:00 1017 30.03 846 24.98 -1.8 28.7 49 -11.3 11.7
20:05 1017 30.03 846 24.98 -1.8 28.7 49 -11.2 11.9
20:10 1017 30.03 846 24.98 -1.9 28.6 49 -11.2 11.9
20:15 1017 30.03 847 25.01 -2 28.4 49 -11.4 11.6
20:20 1017 30.03 847 25.01 -2.1 28.2 49 -11.5 11.3
20:25 1017 30.03 847 25.01 -2.2 28.1 49 -11.5 11.3
20:30 1018 30.06 847 25.01 -2.3 27.9 49 -11.5 11.3
20:35 1018 30.06 847 25.01 -2.4 27.7 53 -10.8 12.6
20:40 1018 30.06 847 25.01 -3.2 26.2 59 -10.1 13.9
20:45 1018 30.06 847 25.01 -3.6 25.5 62 -9.9 14.1
20:50 1018 30.06 847 25.01 -3.7 25.3 62 -9.9 14.1
20:55 1018 30.06 847 25.01 -3.6 25.5 59 -10.4 13.3
21:00 1018 30.06 847 25.01 -3.3 26.1 56 -10.9 12.4
21:05 1018 30.06 847 25.01 -3.1 26.4 55 -10.9 12.4
21:10 1018 30.06 847 25.01 -3 26.7 54 -11.1 12
21:15 1018 30.06 847 25.01 -3 26.6 53 -11.4 11.6
21:20 1018 30.06 847 25.01 -3.1 26.4 53 -11.4 11.4
21:25 1018 30.06 847 25.01 -3 26.6 53 -11.4 11.5
21:30 1018 30.06 847 25.01 -2.9 26.7 52 -11.5 11.2
21:35 1018 30.06 847 25.01 -2.9 26.8 51 -11.6 11.2
21:40 1018 30.06 847 25.01 -2.9 26.8 51 -11.6 11
21:45 1018 30.06 847 25.01 -2.9 26.7 50 -11.8 10.7
21:50 1018 30.06 848 25.04 -2.9 26.7 50 -12 10.4
21:55 1018 30.06 848 25.04 -2.9 26.7 50 -11.9 10.6
22:00 1018 30.06 848 25.04 -3 26.6 51 -11.9 10.6
22:05 1018 30.06 848 25.04 -3.1 26.5 51 -11.8 10.7
22:10 1018 30.06 848 25.04 -3.2 26.2 52 -11.8 10.8
22:15 1019 30.09 848 25.04 -3.4 25.9 52 -11.9 10.7
22:20 1019 30.09 848 25.04 -3.4 25.8 53 -11.8 10.8
22:25 1019 30.09 848 25.04 -3.4 25.9 52 -11.8 10.8
22:30 1018 30.06 848 25.04 -3.4 25.8 52 -11.9 10.6
22:35 1019 30.09 848 25.04 -3.5 25.7 52 -11.9 10.5
22:40 1019 30.09 848 25.04 -3.6 25.4 53 -12 10.4
22:45 1019 30.09 848 25.04 -3.7 25.4 52 -12.2 10
22:50 1019 30.09 848 25.04 -3.6 25.5 52 -12.1 10.2
22:55 1019 30.09 848 25.04 -3.7 25.3 53 -12 10.3
23:00 1019 30.09 848 25.04 -3.8 25.1 54 -11.9 10.5
23:05 1019 30.09 848 25.04 -3.9 25 54 -11.9 10.7
23:10 1019 30.09 848 25.04 -4 24.8 55 -11.8 10.7
23:15 1019 30.09 848 25.04 -4 24.7 55 -11.7 10.9
23:20 1019 30.09 848 25.04 -4.1 24.5 56 -11.7 10.9
23:25 1019 30.09 848 25.04 -4.2 24.4 57 -11.6 11.2
23:30 1019 30.09 848 25.04 -4.4 24.1 58 -11.4 11.5
23:35 1019 30.09 848 25.04 -4.7 23.5 60 -11.4 11.5
23:40 1019 30.09 848 25.04 -5.1 22.9 61 -11.4 11.4
23:45 1019 30.09 848 25.04 -5 22.9 60 -11.6 11.1
23:50 1019 30.09 848 25.04 -4.9 23.2 59 -11.7 11
23:55 1019 30.09 848 25.04 -4.8 23.4 59 -11.6 11.1
24:00 1019 30.09 848 25.04 -5.4 22.3 61 -11.7 11